createdAt,value
2022-09-29T00:01:02.801Z,7.31
2022-09-29T00:06:14.532Z,7.25
2022-09-29T00:11:19.864Z,7.20
2022-09-29T00:16:23.182Z,7.15
2022-09-29T00:21:26.109Z,7.16
2022-09-29T00:26:29.055Z,7.17
2022-09-29T00:31:33.861Z,7.19
2022-09-29T00:36:35.850Z,7.24
2022-09-29T00:41:40.243Z,7.30
2022-09-29T00:47:03.510Z,7.40
2022-09-29T00:52:12.541Z,7.47
2022-09-29T00:57:20.522Z,7.48
2022-09-29T01:02:24.042Z,7.46
2022-09-29T01:07:27.957Z,7.52
2022-09-29T01:12:30.681Z,7.57
2022-09-29T01:17:33.871Z,7.58
2022-09-29T01:22:43.337Z,7.51
2022-09-29T01:28:33.897Z,7.55
2022-09-29T01:34:00.524Z,7.45
2022-09-29T01:39:32.100Z,7.33
2022-09-29T01:44:45.095Z,7.28
2022-09-29T01:49:56.387Z,7.26
2022-09-29T01:55:12.353Z,7.28
2022-09-29T02:00:18.395Z,7.32
2022-09-29T02:05:36.350Z,7.27
2022-09-29T02:10:47.960Z,7.21
2022-09-29T02:15:55.343Z,7.20
2022-09-29T02:20:58.128Z,7.20
2022-09-29T02:26:02.828Z,7.23
2022-09-29T02:31:07.624Z,7.18
2022-09-29T02:36:25.546Z,7.05
2022-09-29T02:41:50.164Z,6.97
2022-09-29T02:47:15.018Z,6.90
2022-09-29T02:52:27.471Z,6.89
2022-09-29T02:57:50.794Z,6.87
2022-09-29T03:02:52.838Z,6.82
2022-09-29T03:07:54.618Z,6.80
2022-09-29T03:12:56.792Z,6.82
2022-09-29T03:17:59.139Z,6.81
2022-09-29T03:23:02.454Z,6.75
2022-09-29T03:28:05.384Z,6.74
2022-09-29T03:33:08.627Z,6.65
2022-09-29T03:38:11.671Z,6.55
2022-09-29T03:43:14.977Z,6.53
2022-09-29T03:48:21.875Z,6.59
2022-09-29T03:53:28.004Z,6.60
2022-09-29T03:58:30.402Z,6.63
2022-09-29T04:03:32.444Z,6.64
2022-09-29T04:08:38.856Z,6.62
2022-09-29T04:13:41.725Z,6.65
2022-09-29T04:18:44.173Z,6.64
2022-09-29T04:23:48.843Z,6.66
2022-09-29T04:28:52.145Z,6.68
2022-09-29T04:33:54.628Z,6.73
2022-09-29T04:38:58.331Z,6.81
2022-09-29T04:44:02.327Z,6.84
2022-09-29T04:49:09.662Z,6.84
2022-09-29T04:54:12.924Z,6.88
2022-09-29T04:59:17.865Z,6.92
2022-09-29T05:04:20.061Z,6.91
2022-09-29T05:09:24.838Z,6.90
2022-09-29T05:14:27.086Z,6.94
2022-09-29T05:19:29.607Z,7.03
2022-09-29T05:24:32.871Z,7.07
2022-09-29T05:29:36.208Z,7.08
2022-09-29T05:34:39.766Z,7.11
2022-09-29T05:39:44.841Z,7.16
2022-09-29T05:44:48.041Z,7.20
2022-09-29T05:49:51.590Z,7.23
2022-09-29T05:54:54.932Z,7.28
2022-09-29T05:59:58.129Z,7.30
2022-09-29T06:05:00.997Z,7.30
2022-09-29T06:10:04.365Z,7.28
2022-09-29T06:15:07.417Z,7.27
2022-09-29T06:20:09.717Z,7.21
2022-09-29T06:25:13.214Z,7.17
2022-09-29T06:30:15.468Z,7.19
2022-09-29T06:35:36.511Z,7.30
2022-09-29T06:40:39.613Z,7.37
2022-09-29T06:45:42.516Z,7.36
2022-09-29T06:50:45.477Z,7.34
2022-09-29T06:55:56.753Z,7.37
2022-09-29T07:01:05.530Z,7.49
2022-09-29T07:06:20.040Z,7.61
2022-09-29T07:11:24.003Z,7.70
2022-09-29T07:16:26.744Z,7.73
2022-09-29T07:21:29.844Z,7.79
2022-09-29T07:26:32.723Z,7.85
2022-09-29T07:31:46.464Z,7.95
2022-09-29T07:36:53.376Z,8.18
2022-09-29T07:42:00.436Z,8.36
2022-09-29T07:47:03.651Z,8.52
2022-09-29T07:52:06.736Z,8.64
2022-09-29T07:57:10.951Z,8.87
2022-09-29T08:02:12.997Z,9.05
2022-09-29T08:07:15.975Z,9.13
2022-09-29T08:12:19.308Z,9.01
2022-09-29T08:17:22.007Z,9.21
2022-09-29T08:22:24.199Z,9.66
2022-09-29T08:27:29.171Z,9.72
2022-09-29T08:32:31.811Z,9.76
2022-09-29T08:37:35.278Z,9.94
2022-09-29T08:42:57.645Z,10.53
2022-09-29T08:48:22.889Z,11.21
2022-09-29T08:53:30.524Z,11.69
2022-09-29T08:58:34.518Z,11.97
2022-09-29T09:03:59.229Z,11.78
2022-09-29T09:09:19.449Z,11.49
2022-09-29T09:14:28.418Z,11.33
2022-09-29T09:19:50.665Z,11.14
2022-09-29T09:25:13.837Z,11.28
2022-09-29T09:30:19.343Z,11.88
2022-09-29T09:35:57.903Z,12.26
2022-09-29T09:41:02.752Z,12.73
2022-09-29T09:46:31.104Z,13.27
2022-09-29T09:51:52.977Z,13.41
2022-09-29T09:57:25.142Z,13.24
2022-09-29T10:02:30.484Z,13.15
2022-09-29T10:07:32.869Z,13.35
2022-09-29T10:12:35.486Z,13.58
2022-09-29T10:17:47.373Z,13.90
2022-09-29T10:22:51.836Z,14.22
2022-09-29T10:27:57.869Z,14.47
2022-09-29T10:33:10.370Z,14.67
2022-09-29T10:38:19.199Z,14.87
2022-09-29T10:43:26.498Z,15.05
2022-09-29T10:48:29.599Z,15.33
2022-09-29T10:53:37.053Z,15.51
2022-09-29T10:58:58.995Z,15.81
2022-09-29T11:04:15.757Z,16.11
2022-09-29T11:09:21.556Z,16.32
2022-09-29T11:14:36.354Z,16.51
2022-09-29T11:19:40.943Z,16.90
2022-09-29T11:25:11.887Z,17.23
2022-09-29T11:30:21.630Z,17.40
2022-09-29T11:35:39.294Z,17.45
2022-09-29T11:40:52.184Z,17.28
2022-09-29T11:46:29.456Z,17.28
2022-09-29T11:51:34.953Z,17.39
2022-09-29T11:56:47.359Z,17.26
2022-09-29T12:02:20.225Z,17.46
2022-09-29T12:08:00.967Z,17.59
2022-09-29T12:13:13.532Z,17.62
2022-09-29T12:18:40.286Z,17.52
2022-09-29T12:23:46.798Z,17.41
2022-09-29T12:29:02.033Z,17.21
2022-09-29T12:34:29.858Z,16.99
2022-09-29T12:39:56.715Z,16.67
2022-09-29T12:45:10.856Z,16.60
2022-09-29T12:50:26.275Z,16.31
2022-09-29T12:56:01.832Z,15.93
2022-09-29T13:01:16.602Z,15.86
2022-09-29T13:06:58.367Z,16.13
2022-09-29T13:12:32.568Z,16.10
2022-09-29T13:17:48.433Z,16.15
2022-09-29T13:23:14.817Z,15.96
2022-09-29T13:28:27.299Z,16.00
2022-09-29T13:33:31.703Z,15.94
2022-09-29T13:38:39.609Z,16.04
2022-09-29T13:43:53.075Z,15.74
2022-09-29T13:49:14.303Z,15.38
2022-09-29T13:54:28.420Z,15.19
2022-09-29T13:59:33.316Z,14.95
2022-09-29T14:04:41.679Z,14.76
2022-09-29T14:09:48.301Z,14.65
2022-09-29T14:14:57.902Z,14.56
2022-09-29T14:20:10.807Z,14.48
2022-09-29T14:25:15.704Z,14.52
2022-09-29T14:30:42.243Z,14.52
2022-09-29T14:35:50.516Z,14.41
2022-09-29T14:41:03.143Z,14.35
2022-09-29T14:46:46.543Z,14.31
2022-09-29T14:51:59.743Z,14.14
2022-09-29T14:57:25.756Z,14.08
2022-09-29T15:02:31.029Z,13.93
2022-09-29T15:07:40.980Z,13.70
2022-09-29T15:12:50.448Z,13.48
2022-09-29T15:18:01.189Z,13.27
2022-09-29T15:23:39.709Z,13.15
2022-09-29T15:28:43.989Z,13.06
2022-09-29T15:33:47.978Z,12.99
2022-09-29T15:38:53.859Z,12.96
2022-09-29T15:44:02.722Z,12.96
2022-09-29T15:49:18.473Z,12.78
2022-09-29T15:54:21.963Z,12.52
2022-09-29T15:59:55.436Z,12.33
2022-09-29T16:05:04.745Z,12.25
2022-09-29T16:10:20.995Z,12.15
2022-09-29T16:15:29.496Z,12.04
2022-09-29T16:20:35.513Z,11.84
2022-09-29T16:25:37.482Z,11.62
2022-09-29T16:30:39.835Z,11.36
2022-09-29T16:35:48.355Z,11.07
2022-09-29T16:40:53.149Z,10.87
2022-09-29T16:45:59.739Z,10.50
2022-09-29T16:51:12.364Z,10.20
2022-09-29T16:56:32.139Z,9.99
2022-09-29T17:01:34.806Z,9.81
2022-09-29T17:06:37.412Z,9.63
2022-09-29T17:11:40.038Z,9.41
2022-09-29T17:16:42.234Z,9.22
2022-09-29T17:21:46.209Z,9.00
2022-09-29T17:27:09.622Z,8.73
2022-09-29T17:32:15.076Z,8.50
2022-09-29T17:37:18.532Z,8.47
2022-09-29T17:42:26.674Z,8.51
2022-09-29T17:47:32.952Z,8.48
2022-09-29T17:52:44.166Z,8.25
2022-09-29T17:57:49.843Z,7.98
2022-09-29T18:02:59.784Z,7.86
2022-09-29T18:08:03.865Z,7.81
2022-09-29T18:13:07.194Z,7.75
2022-09-29T18:18:18.375Z,7.68
2022-09-29T18:23:25.068Z,7.55
2022-09-29T18:28:28.177Z,7.33
2022-09-29T18:33:31.884Z,7.05
2022-09-29T18:38:37.859Z,6.93
2022-09-29T18:43:40.758Z,6.93
2022-09-29T18:48:43.520Z,6.84
2022-09-29T18:53:45.807Z,6.76
2022-09-29T18:58:48.040Z,6.65
2022-09-29T19:03:52.302Z,6.54
2022-09-29T19:08:55.881Z,6.50
2022-09-29T19:14:04.820Z,6.42
2022-09-29T19:19:10.397Z,6.37
2022-09-29T19:24:14.637Z,6.33
2022-09-29T19:29:17.126Z,6.26
2022-09-29T19:34:20.132Z,6.24
2022-09-29T19:39:25.605Z,6.17
2022-09-29T19:44:29.774Z,6.18
2022-09-29T19:49:33.553Z,6.15
2022-09-29T19:54:39.644Z,6.15
2022-09-29T19:59:43.576Z,6.12
2022-09-29T20:04:45.579Z,6.02
2022-09-29T20:09:49.039Z,5.91
2022-09-29T20:14:52.047Z,5.86
2022-09-29T20:19:55.373Z,5.81
2022-09-29T20:24:58.820Z,5.75
2022-09-29T20:30:06.152Z,5.60
2022-09-29T20:35:10.438Z,5.42
2022-09-29T20:40:12.921Z,5.28
2022-09-29T20:45:19.474Z,5.18
2022-09-29T20:50:21.811Z,5.09
2022-09-29T20:55:24.927Z,5.03
2022-09-29T21:00:27.272Z,5.00
2022-09-29T21:05:29.783Z,5.03
2022-09-29T21:10:31.752Z,5.01
2022-09-29T21:15:34.432Z,4.96
2022-09-29T21:20:36.998Z,4.97
2022-09-29T21:25:39.219Z,4.91
2022-09-29T21:30:41.271Z,4.86
2022-09-29T21:35:45.048Z,4.92
2022-09-29T21:40:48.166Z,4.89
2022-09-29T21:45:50.840Z,4.76
2022-09-29T21:51:01.177Z,4.73
2022-09-29T21:56:07.135Z,4.74
2022-09-29T22:01:11.483Z,4.68
2022-09-29T22:06:21.376Z,4.62
2022-09-29T22:11:27.110Z,4.52
2022-09-29T22:16:31.882Z,4.42
2022-09-29T22:21:35.183Z,4.35
2022-09-29T22:26:39.643Z,4.28
2022-09-29T22:31:42.525Z,4.25
2022-09-29T22:36:46.146Z,4.25
2022-09-29T22:41:52.740Z,4.24
2022-09-29T22:46:55.265Z,4.26
2022-09-29T22:51:57.501Z,4.18
2022-09-29T22:56:59.780Z,4.13
2022-09-29T23:02:01.744Z,4.13
2022-09-29T23:07:03.816Z,4.17
2022-09-29T23:12:07.543Z,4.13
2022-09-29T23:17:09.960Z,4.08
2022-09-29T23:22:11.816Z,4.12
2022-09-29T23:27:13.839Z,4.21
2022-09-29T23:32:18.545Z,4.31
2022-09-29T23:37:21.077Z,4.42
2022-09-29T23:42:23.456Z,4.41
2022-09-29T23:47:25.685Z,4.35
2022-09-29T23:52:27.792Z,4.38
2022-09-29T23:57:38.243Z,4.36
